Latest Coastal Weather Observations for Mardie

IDW60701

Issued at 2:22 am WST Tuesday 7 July 2015 (issued every 10 minutes, with the page automatically refreshed every 10 minutes)

About coastal observations | Map of coastal stations | Coastal observations for WA | Marine services | Other Formats
Station Details ID: 005008 Name: MARDIE Lat: -21.19 Lon: 115.98 Height: 11.0 m
Data from the previous 72 hours. | See also: Recent months at Mardie
Date/Time
WST
Temp

°C
Wind Pressure Rain
since 9am
mm
Weather Cloud Vis
km
Sea
Height
m
Swell
Dir
 
Speed
knots
Gust
knots
hPa Trend Height
m
Period
s
Dir
07/02:00am 11.9 SSE 5 5 1015.9 - 0.0 - - - - - - -
07/01:30am 12.4 SSE 3 4 1016.1 - 0.0 - - - - - - -
07/01:00am 12.8 SSE 5 5 1016.3 - 0.0 - - - - - - -
07/12:30am 12.9 SSE 3 4 1016.4 - 0.0 - - - - - - -
07/12:00am 13.0 SSE 3 4 1016.6 - 0.0 - - - - - - -
 
Date/Time
WST
Temp

°C
Wind Pressure Rain
since 9am
mm
Weather Cloud Vis
km
Sea
Height
m
Swell
Dir
 
Speed
knots
Gust
knots
hPa Trend Height
m
Period
s
Dir
06/11:30pm 13.8 SSE 2 3 1016.5 - 0.0 - - - - - - -
06/11:00pm 13.9 SSE 3 4 1016.8 - 0.0 - - - - - - -
06/10:30pm 14.0 SSE 6 8 1016.9 - 0.0 - - - - - - -
06/10:00pm 14.4 NNW 5 7 1016.9 - 0.0 - - - - - - -
06/09:30pm 14.9 NNW 3 4 1016.9 - 0.0 - - - - - - -
06/09:00pm 15.5 CALM 0 0 1016.8 - 0.0 - - - - - - -
06/08:30pm 16.6 NNW 1 2 1016.9 - 0.0 - - - - - - -
06/08:00pm 17.2 NNW 2 3 1016.8 - 0.0 - - - - - - -
06/07:30pm 18.8 NNW 2 3 1016.7 - 0.0 - - - - - - -
06/07:00pm 18.9 NNW 2 3 1016.6 - 0.0 - - - - - - -
06/06:30pm 20.3 NNW 3 4 1016.2 - 0.0 - - - - - - -
06/06:00pm 21.1 NNW 3 4 1016.0 - 0.0 - - - - - - -
06/05:30pm 23.4 NNW 4 7 1016.0 - 0.0 - - - - - - -
06/05:00pm 24.7 N 6 9 1015.7 - 0.0 - - - - - - -
06/04:30pm 25.7 N 9 13 1015.4 - 0.0 - - - - - - -
06/04:00pm 26.5 N 9 14 1015.3 - 0.0 - - - - - - -
06/03:30pm 26.9 N 11 15 1015.1 - 0.0 - - - - - - -
06/03:00pm 27.1 N 10 14 1015.0 - 0.0 - - - - - - -
06/02:30pm 27.6 NE 7 12 1015.1 - 0.0 - - - - - - -
06/02:00pm 28.4 E 9 15 1015.3 - 0.0 - - - - - - -
06/01:30pm 27.9 E 4 9 1015.5 - 0.0 - - - - - - -
06/01:00pm 27.5 ENE 7 11 1016.0 - 0.0 - - - - - - -
06/12:30pm 28.1 ENE 9 13 1016.5 - 0.0 - - - - - - -
06/12:00pm 27.4 ESE 9 17 1016.8 - 0.0 - - - - - - -
06/11:30am 27.4 ENE 11 16 1017.1 - 0.0 - - - - - - -
06/11:00am 27.1 ENE 11 14 1017.6 - 0.0 - - - - - - -
06/10:30am 26.4 ENE 8 11 1017.9 - 0.0 - - - - - - -
06/10:00am 24.7 ENE 7 10 1018.0 - 0.0 - - - - - - -
06/09:30am 23.6 E 8 9 1018.1 - 0.0 - - - - - - -
06/09:00am 21.4 ESE 5 7 1018.0 - 0.0 - - - - - - -
06/08:30am 18.5 ESE 5 7 1017.8 - 0.0 - - - - - - -
06/08:00am 16.1 ESE 4 5 1017.6 - 0.0 - - - - - - -
06/07:30am 12.1 ESE 4 4 1017.3 - 0.0 - - - - - - -
06/07:00am 10.3 ESE 6 7 1017.0 - 0.0 - - - - - - -
06/06:30am 10.7 ESE 6 7 1016.9 - 0.0 - - - - - - -
06/06:00am 10.7 ESE 4 5 1016.7 - 0.0 - - - - - - -
06/05:30am 10.9 ESE 4 5 1016.6 - 0.0 - - - - - - -
06/05:00am 11.4 ESE 4 5 1016.5 - 0.0 - - - - - - -
06/04:30am 11.8 SE 4 5 1016.5 - 0.0 - - - - - - -
06/04:00am 11.9 SE 3 4 1016.5 - 0.0 - - - - - - -
06/03:30am 12.2 SE 4 5 1016.5 - 0.0 - - - - - - -
06/03:00am 13.2 S 4 5 1016.7 - 0.0 - - - - - - -
06/02:30am 12.7 SE 4 5 1016.7 - 0.0 - - - - - - -
06/02:00am 12.9 SE 4 5 1017.1 - 0.0 - - - - - - -
06/01:30am 13.3 ESE 3 3 1017.3 - 0.0 - - - - - - -
06/01:00am 13.3 SE 5 6 1017.6 - 0.0 - - - - - - -
06/12:30am 13.9 SSE 5 6 1017.7 - 0.0 - - - - - - -
06/12:00am 14.2 SE 5 5 1018.0 - 0.0 - - - - - - -
 
Date/Time
WST
Temp

°C
Wind Pressure Rain
since 9am
mm
Weather Cloud Vis
km
Sea
Height
m
Swell
Dir
 
Speed
knots
Gust
knots
hPa Trend Height
m
Period
s
Dir
05/11:30pm 13.9 SE 5 6 1018.1 - 0.0 - - - - - - -
05/11:00pm 14.3 SSE 4 4 1018.1 - 0.0 - - - - - - -
05/10:30pm 14.3 NW 3 4 1017.9 - 0.0 - - - - - - -
05/10:00pm 14.5 NW 5 6 1017.8 - 0.0 - - - - - - -
05/09:30pm 15.0 NW 4 5 1017.8 - 0.0 - - - - - - -
05/09:00pm 15.2 NW 4 5 1017.9 - 0.0 - - - - - - -
05/08:30pm 16.4 NW 1 1 1017.8 - 0.0 - - - - - - -
05/08:00pm 17.1 CALM 0 2 1017.6 - 0.0 - - - - - - -
05/07:30pm 18.6 NW 2 3 1017.3 - 0.0 - - - - - - -
05/07:00pm 18.9 NW 3 3 1017.0 - 0.0 - - - - - - -
05/06:30pm 20.3 NW 3 4 1016.8 - 0.0 - - - - - - -
05/06:00pm 21.8 NNW 3 4 1016.8 - 0.0 - - - - - - -
05/05:30pm 23.5 N 3 7 1016.8 - 0.0 - - - - - - -
05/05:00pm 24.9 N 5 7 1016.6 - 0.0 - - - - - - -
05/04:30pm 25.1 N 7 11 1016.6 - 0.0 - - - - - - -
05/04:00pm 26.1 N 8 11 1016.6 - 0.0 - - - - - - -
05/03:30pm 27.0 N 7 13 1016.6 - 0.0 - - - - - - -
05/03:00pm 28.2 N 8 14 1016.4 - 0.0 - - - - - - -
05/02:30pm 28.6 ESE 3 9 1016.5 - 0.0 - - - - - - -
05/02:00pm 29.4 E 6 10 1016.8 - 0.0 - - - - - - -
05/01:30pm 29.0 ENE 6 11 1017.1 - 0.0 - - - - - - -
05/01:00pm 28.8 E 9 13 1017.6 - 0.0 - - - - - - -
05/12:30pm 28.4 ENE 7 13 1018.0 - 0.0 - - - - - - -
05/12:00pm 28.2 ENE 11 19 1018.6 - 0.0 - - - - - - -
05/11:30am 27.9 ENE 11 15 1019.0 - 0.0 - - - - - - -
05/11:00am 27.5 ENE 12 17 1019.5 - 0.0 - - - - - - -
05/10:30am 26.8 ENE 12 16 1019.8 - 0.0 - - - - - - -
05/10:00am 25.1 ENE 7 10 1020.0 - 0.0 - - - - - - -
05/09:30am 23.6 E 7 10 1020.1 - 0.0 - - - - - - -
05/09:00am 21.6 E 8 9 1019.9 - 0.0 - - - - - - -
05/08:30am 19.6 E 8 10 1019.7 - 0.0 - - - - - - -
05/08:00am 17.5 E 6 7 1019.5 - 0.0 - - - - - - -
05/07:30am 15.9 E 7 9 1019.2 - 0.0 - - - - - - -
05/07:00am 14.8 ESE 9 11 1018.6 - 0.0 - - - - - - -
05/06:30am 13.3 ESE 9 9 1018.3 - 0.0 - - - - - - -
05/06:00am 11.8 ESE 5 5 1018.1 - 0.0 - - - - - - -
05/05:30am 12.1 ESE 4 4 1017.9 - 0.0 - - - - - - -
05/05:00am 12.8 ESE 6 7 1017.8 - 0.0 - - - - - - -
05/04:30am 12.2 ESE 5 6 1017.8 - 0.0 - - - - - - -
05/04:00am 12.3 ESE 5 6 1017.8 - 0.0 - - - - - - -
05/03:30am 12.5 ESE 6 7 1017.8 - 0.0 - - - - - - -
05/03:00am 12.6 E 5 5 1017.9 - 0.0 - - - - - - -
05/02:30am 13.2 E 4 6 1018.1 - 0.0 - - - - - - -
05/02:00am 13.5 E 4 5 1018.1 - 0.0 - - - - - - -
05/01:30am 14.0 E 4 4 1018.2 - 0.0 - - - - - - -
05/01:00am 14.1 E 5 6 1018.4 - 0.0 - - - - - - -
05/12:30am 14.0 E 5 6 1018.5 - 0.0 - - - - - - -
05/12:00am 14.5 SE 4 5 1018.6 - 0.0 - - - - - - -
 
Date/Time
WST
Temp

°C
Wind Pressure Rain
since 9am
mm
Weather Cloud Vis
km
Sea
Height
m
Swell
Dir
 
Speed
knots
Gust
knots
hPa Trend Height
m
Period
s
Dir
04/11:30pm 14.5 SSE 5 6 1018.7 - 0.0 - - - - - - -
04/11:00pm 15.0 S 3 5 1018.7 - 0.0 - - - - - - -
04/10:30pm 16.1 S 3 3 1018.7 - 0.0 - - - - - - -
04/10:00pm 16.5 SSW 5 5 1019.0 - 0.0 - - - - - - -
04/09:30pm 16.6 SSW 6 8 1018.9 - 0.0 - - - - - - -
04/09:00pm 16.7 SSW 6 7 1018.9 - 0.0 - - - - - - -
04/08:30pm 17.4 WSW 3 5 1018.5 - 0.0 - - - - - - -
04/08:00pm 18.8 WSW 4 4 1018.2 - 0.0 - - - - - - -
04/07:30pm 19.0 WSW 4 4 1017.9 - 0.0 - - - - - - -
04/07:00pm 19.2 W 5 6 1017.7 - 0.0 - - - - - - -
04/06:30pm 20.6 WNW 4 5 1017.4 - 0.0 - - - - - - -
04/06:00pm 22.0 NNW 2 3 1017.2 - 0.0 - - - - - - -
04/05:30pm 24.4 NNW 3 5 1017.0 - 0.0 - - - - - - -
04/05:00pm 25.8 NNW 6 9 1017.0 - 0.0 - - - - - - -
04/04:30pm 26.4 NNW 7 10 1017.1 - 0.0 - - - - - - -
04/04:00pm 27.3 NNW 7 12 1017.1 - 0.0 - - - - - - -
04/03:30pm 29.6 SSE 5 10 1016.9 - 0.0 - - - - - - -
04/03:00pm 29.7 SE 4 8 1016.9 - 0.0 - - - - - - -
04/02:30pm 29.6 ESE 5 12 1017.0 - 0.0 - - - - - - -
04/02:00pm 29.3 ENE 5 8 1017.3 - 0.0 - - - - - - -
04/01:30pm 29.5 ENE 6 12 1017.5 - 0.0 - - - - - - -
04/01:00pm 28.9 E 11 16 1017.9 - 0.0 - - - - - - -
04/12:30pm 28.8 E 11 17 1018.4 - 0.0 - - - - - - -
04/12:00pm 28.7 ESE 11 19 1018.9 - 0.0 - - - - - - -
04/11:30am 28.7 E 9 14 1019.4 - 0.0 - - - - - - -
04/11:00am 27.9 E 8 14 1019.6 - 0.0 - - - - - - -
04/10:30am 27.0 E 10 13 1020.0 - 0.0 - - - - - - -
04/10:00am 26.1 E 8 11 1020.3 - 0.0 - - - - - - -
04/09:30am 24.6 ESE 9 11 1020.4 - 0.0 - - - - - - -
04/09:00am 23.1 ESE 9 13 1020.3 - 0.0 - - - - - - -
04/08:30am 19.9 ESE 7 9 1020.1 - 0.0 - - - - - - -
04/08:00am 17.4 ESE 6 7 1019.9 - 0.0 - - - - - - -
04/07:30am 14.7 ESE 6 7 1019.5 - 0.0 - - - - - - -
04/07:00am 12.9 ESE 5 6 1019.2 - 0.0 - - - - - - -
04/06:30am 12.1 ESE 6 8 1019.0 - 0.0 - - - - - - -
04/06:00am 12.2 ESE 6 7 1018.7 - 0.0 - - - - - - -
04/05:30am - ESE 4 6 1018.4 - 0.0 - - - - - - -
04/05:00am 13.2 ESE 6 7 1018.3 - 0.0 - - - - - - -
04/04:30am 13.1 ESE 6 7 1018.2 - 0.0 - - - - - - -
04/04:00am 13.1 ESE 4 5 1018.4 - 0.0 - - - - - - -
04/03:30am 13.1 ESE 4 5 1018.5 - 0.0 - - - - - - -
04/03:00am 13.3 SE 4 4 1018.6 - 0.0 - - - - - - -
04/02:30am 13.2 SE 3 4 1018.7 - 0.0 - - - - - - -

Other Formats:

Comma delimited format used in spreadsheet applications
http://www.bom.gov.au/fwo/IDW60701/IDW60701.94306.axf

JavaScript Object Notation format (JSON) in row-major order
http://www.bom.gov.au/fwo/IDW60701/IDW60701.94306.json